sensor_id;sensor_type;location;lat;lon;timestamp;temperature;humidity
59881;DHT22;45751;51.380;10.326;2023-02-01T00:00:52;3.90;99.90
59881;DHT22;45751;51.380;10.326;2023-02-01T00:03:19;3.90;99.90
59881;DHT22;45751;51.380;10.326;2023-02-01T00:05:55;3.90;99.90
59881;DHT22;45751;51.380;10.326;2023-02-01T00:08:23;3.90;99.90
59881;DHT22;45751;51.380;10.326;2023-02-01T00:10:58;3.80;99.90
59881;DHT22;45751;51.380;10.326;2023-02-01T00:13:28;3.80;99.90
59881;DHT22;45751;51.380;10.326;2023-02-01T00:16:02;3.90;99.90
59881;DHT22;45751;51.380;10.326;2023-02-01T00:18:30;3.80;99.90
59881;DHT22;45751;51.380;10.326;2023-02-01T00:20:56;3.80;99.90
59881;DHT22;45751;51.380;10.326;2023-02-01T00:23:23;3.80;99.90
59881;DHT22;45751;51.380;10.326;2023-02-01T00:25:50;3.80;99.90
59881;DHT22;45751;51.380;10.326;2023-02-01T00:28:20;3.80;99.90
59881;DHT22;45751;51.380;10.326;2023-02-01T00:30:56;3.80;99.90
59881;DHT22;45751;51.380;10.326;2023-02-01T00:33:24;3.80;99.90
59881;DHT22;45751;51.380;10.326;2023-02-01T00:35:51;3.80;99.90
59881;DHT22;45751;51.380;10.326;2023-02-01T00:38:17;3.80;99.90
59881;DHT22;45751;51.380;10.326;2023-02-01T00:40:44;3.80;99.90
59881;DHT22;45751;51.380;10.326;2023-02-01T00:43:12;3.70;99.90
59881;DHT22;45751;51.380;10.326;2023-02-01T00:45:39;3.80;99.90
59881;DHT22;45751;51.380;10.326;2023-02-01T00:48:06;3.80;99.90
59881;DHT22;45751;51.380;10.326;2023-02-01T00:50:33;3.70;99.90
59881;DHT22;45751;51.380;10.326;2023-02-01T00:53:00;3.70;99.90
59881;DHT22;45751;51.380;10.326;2023-02-01T00:55:27;3.70;99.90
59881;DHT22;45751;51.380;10.326;2023-02-01T00:57:54;3.70;99.90
59881;DHT22;45751;51.380;10.326;2023-02-01T01:00:21;3.80;99.90
59881;DHT22;45751;51.380;10.326;2023-02-01T01:02:48;3.80;99.90
59881;DHT22;45751;51.380;10.326;2023-02-01T01:05:15;3.80;99.90
59881;DHT22;45751;51.380;10.326;2023-02-01T01:07:42;3.80;99.90
59881;DHT22;45751;51.380;10.326;2023-02-01T01:10:09;3.80;99.90
59881;DHT22;45751;51.380;10.326;2023-02-01T01:12:36;3.80;99.90
59881;DHT22;45751;51.380;10.326;2023-02-01T01:15:03;3.80;99.90
59881;DHT22;45751;51.380;10.326;2023-02-01T01:17:31;3.80;99.90
59881;DHT22;45751;51.380;10.326;2023-02-01T01:19:58;3.80;99.90
59881;DHT22;45751;51.380;10.326;2023-02-01T01:22:25;3.80;99.90
59881;DHT22;45751;51.380;10.326;2023-02-01T01:24:52;3.80;99.90
59881;DHT22;45751;51.380;10.326;2023-02-01T01:27:19;3.80;99.90
59881;DHT22;45751;51.380;10.326;2023-02-01T01:29:50;3.80;99.90
59881;DHT22;45751;51.380;10.326;2023-02-01T01:32:17;3.80;99.70
59881;DHT22;45751;51.380;10.326;2023-02-01T01:34:44;3.80;99.40
59881;DHT22;45751;51.380;10.326;2023-02-01T01:37:11;3.80;99.30
59881;DHT22;45751;51.380;10.326;2023-02-01T01:39:37;3.80;99.20
59881;DHT22;45751;51.380;10.326;2023-02-01T01:42:04;3.80;99.20
59881;DHT22;45751;51.380;10.326;2023-02-01T01:44:58;3.80;99.10
59881;DHT22;45751;51.380;10.326;2023-02-01T01:47:31;3.80;99.10
59881;DHT22;45751;51.380;10.326;2023-02-01T01:50:01;3.80;98.90
59881;DHT22;45751;51.380;10.326;2023-02-01T01:52:28;3.80;98.50
59881;DHT22;45751;51.380;10.326;2023-02-01T01:54:55;3.80;98.30
59881;DHT22;45751;51.380;10.326;2023-02-01T01:57:27;3.80;98.10
59881;DHT22;45751;51.380;10.326;2023-02-01T02:00:17;3.80;98.40
59881;DHT22;45751;51.380;10.326;2023-02-01T02:02:49;3.80;98.40
59881;DHT22;45751;51.380;10.326;2023-02-01T02:05:20;3.80;97.90
59881;DHT22;45751;51.380;10.326;2023-02-01T02:07:49;3.80;97.90
59881;DHT22;45751;51.380;10.326;2023-02-01T02:10:17;3.80;97.50
59881;DHT22;45751;51.380;10.326;2023-02-01T02:12:47;3.80;97.50
59881;DHT22;45751;51.380;10.326;2023-02-01T02:15:16;3.80;97.30
59881;DHT22;45751;51.380;10.326;2023-02-01T02:18:12;3.70;97.30
59881;DHT22;45751;51.380;10.326;2023-02-01T02:21:04;3.70;97.30
59881;DHT22;45751;51.380;10.326;2023-02-01T02:43:02;3.70;95.90
59881;DHT22;45751;51.380;10.326;2023-02-01T02:45:55;3.70;96.10
59881;DHT22;45751;51.380;10.326;2023-02-01T02:48:54;3.70;96.00
59881;DHT22;45751;51.380;10.326;2023-02-01T02:54:31;3.70;95.90
59881;DHT22;45751;51.380;10.326;2023-02-01T03:00:11;3.70;95.80
59881;DHT22;45751;51.380;10.326;2023-02-01T03:02:57;3.70;95.80
59881;DHT22;45751;51.380;10.326;2023-02-01T03:05:47;3.70;95.90
59881;DHT22;45751;51.380;10.326;2023-02-01T03:16:33;3.70;96.10
59881;DHT22;45751;51.380;10.326;2023-02-01T03:19:22;3.70;96.10
59881;DHT22;45751;51.380;10.326;2023-02-01T03:22:00;3.70;96.70
59881;DHT22;45751;51.380;10.326;2023-02-01T03:27:29;3.70;96.00
59881;DHT22;45751;51.380;10.326;2023-02-01T03:30:22;3.70;96.00
59881;DHT22;45751;51.380;10.326;2023-02-01T03:32:56;3.70;96.20
59881;DHT22;45751;51.380;10.326;2023-02-01T03:38:33;3.70;96.30
59881;DHT22;45751;51.380;10.326;2023-02-01T03:44:15;3.70;96.00
59881;DHT22;45751;51.380;10.326;2023-02-01T03:49:39;3.70;96.60
59881;DHT22;45751;51.380;10.326;2023-02-01T03:52:11;3.70;97.00
59881;DHT22;45751;51.380;10.326;2023-02-01T03:54:42;3.70;97.10
59881;DHT22;45751;51.380;10.326;2023-02-01T03:57:13;3.70;97.40
59881;DHT22;45751;51.380;10.326;2023-02-01T03:59:42;3.80;97.50
59881;DHT22;45751;51.380;10.326;2023-02-01T04:02:09;3.70;97.90
59881;DHT22;45751;51.380;10.326;2023-02-01T04:04:37;3.70;97.50
59881;DHT22;45751;51.380;10.326;2023-02-01T04:07:04;3.70;97.50
59881;DHT22;45751;51.380;10.326;2023-02-01T04:09:31;3.70;97.80
59881;DHT22;45751;51.380;10.326;2023-02-01T04:11:58;3.70;98.00
59881;DHT22;45751;51.380;10.326;2023-02-01T04:14:25;3.70;98.10
59881;DHT22;45751;51.380;10.326;2023-02-01T04:16:52;3.70;97.90
59881;DHT22;45751;51.380;10.326;2023-02-01T04:19:19;3.60;98.00
59881;DHT22;45751;51.380;10.326;2023-02-01T04:21:46;3.70;97.90
59881;DHT22;45751;51.380;10.326;2023-02-01T04:24:12;3.70;97.70
59881;DHT22;45751;51.380;10.326;2023-02-01T04:26:39;3.70;97.80
59881;DHT22;45751;51.380;10.326;2023-02-01T04:29:08;3.70;97.70
59881;DHT22;45751;51.380;10.326;2023-02-01T04:31:35;3.70;97.50
59881;DHT22;45751;51.380;10.326;2023-02-01T04:34:03;3.70;97.50
59881;DHT22;45751;51.380;10.326;2023-02-01T04:36:30;3.70;97.40
59881;DHT22;45751;51.380;10.326;2023-02-01T04:38:57;3.60;97.20
59881;DHT22;45751;51.380;10.326;2023-02-01T04:41:24;3.60;97.10
59881;DHT22;45751;51.380;10.326;2023-02-01T04:43:51;3.70;97.00
59881;DHT22;45751;51.380;10.326;2023-02-01T04:46:19;3.70;96.90
59881;DHT22;45751;51.380;10.326;2023-02-01T04:48:46;3.70;97.00
59881;DHT22;45751;51.380;10.326;2023-02-01T04:51:12;3.70;97.40
59881;DHT22;45751;51.380;10.326;2023-02-01T04:53:39;3.70;97.40
59881;DHT22;45751;51.380;10.326;2023-02-01T04:56:07;3.60;97.40
59881;DHT22;45751;51.380;10.326;2023-02-01T04:58:34;3.60;96.90
59881;DHT22;45751;51.380;10.326;2023-02-01T05:01:05;3.70;97.40
59881;DHT22;45751;51.380;10.326;2023-02-01T05:03:33;3.70;97.50
59881;DHT22;45751;51.380;10.326;2023-02-01T05:06:00;3.70;98.00
59881;DHT22;45751;51.380;10.326;2023-02-01T05:08:27;3.60;97.70
59881;DHT22;45751;51.380;10.326;2023-02-01T05:10:55;3.60;97.90
59881;DHT22;45751;51.380;10.326;2023-02-01T05:13:22;3.60;98.20
59881;DHT22;45751;51.380;10.326;2023-02-01T05:16:07;3.60;98.40
59881;DHT22;45751;51.380;10.326;2023-02-01T05:18:34;3.60;99.10
59881;DHT22;45751;51.380;10.326;2023-02-01T05:21:01;3.60;98.60
59881;DHT22;45751;51.380;10.326;2023-02-01T05:23:28;3.60;98.60
59881;DHT22;45751;51.380;10.326;2023-02-01T05:25:59;3.60;98.90
59881;DHT22;45751;51.380;10.326;2023-02-01T05:28:28;3.60;98.50
59881;DHT22;45751;51.380;10.326;2023-02-01T05:30:55;3.60;98.80
59881;DHT22;45751;51.380;10.326;2023-02-01T05:33:22;3.60;99.00
59881;DHT22;45751;51.380;10.326;2023-02-01T05:35:49;3.60;98.80
59881;DHT22;45751;51.380;10.326;2023-02-01T05:38:17;3.60;98.30
59881;DHT22;45751;51.380;10.326;2023-02-01T05:40:44;3.60;98.60
59881;DHT22;45751;51.380;10.326;2023-02-01T05:43:16;3.60;98.60
59881;DHT22;45751;51.380;10.326;2023-02-01T05:45:43;3.60;98.70
59881;DHT22;45751;51.380;10.326;2023-02-01T05:48:09;3.60;98.80
59881;DHT22;45751;51.380;10.326;2023-02-01T05:50:36;3.60;98.50
59881;DHT22;45751;51.380;10.326;2023-02-01T05:53:08;3.60;98.40
59881;DHT22;45751;51.380;10.326;2023-02-01T05:55:35;3.60;98.70
59881;DHT22;45751;51.380;10.326;2023-02-01T05:58:03;3.60;98.80
59881;DHT22;45751;51.380;10.326;2023-02-01T06:00:31;3.60;98.50
59881;DHT22;45751;51.380;10.326;2023-02-01T06:02:58;3.60;98.50
59881;DHT22;45751;51.380;10.326;2023-02-01T06:05:25;3.60;99.50
59881;DHT22;45751;51.380;10.326;2023-02-01T06:07:52;3.70;99.90
59881;DHT22;45751;51.380;10.326;2023-02-01T06:10:19;3.60;99.90
59881;DHT22;45751;51.380;10.326;2023-02-01T06:12:47;3.60;99.90
59881;DHT22;45751;51.380;10.326;2023-02-01T06:15:14;3.60;99.90
59881;DHT22;45751;51.380;10.326;2023-02-01T06:17:45;3.50;99.90
59881;DHT22;45751;51.380;10.326;2023-02-01T06:20:13;3.50;99.90
59881;DHT22;45751;51.380;10.326;2023-02-01T06:22:41;3.50;99.90
59881;DHT22;45751;51.380;10.326;2023-02-01T06:25:09;3.50;99.90
59881;DHT22;45751;51.380;10.326;2023-02-01T06:27:37;3.50;99.90
59881;DHT22;45751;51.380;10.326;2023-02-01T06:30:05;3.40;99.90
59881;DHT22;45751;51.380;10.326;2023-02-01T06:32:33;3.40;99.90
59881;DHT22;45751;51.380;10.326;2023-02-01T06:35:00;3.40;99.90
59881;DHT22;45751;51.380;10.326;2023-02-01T06:37:27;3.30;99.90
59881;DHT22;45751;51.380;10.326;2023-02-01T06:39:56;3.30;99.90
59881;DHT22;45751;51.380;10.326;2023-02-01T06:42:23;3.30;99.90
59881;DHT22;45751;51.380;10.326;2023-02-01T06:44:50;3.20;99.90
59881;DHT22;45751;51.380;10.326;2023-02-01T06:47:17;3.20;99.90
59881;DHT22;45751;51.380;10.326;2023-02-01T06:49:44;3.20;99.90
59881;DHT22;45751;51.380;10.326;2023-02-01T06:52:10;3.20;99.90
59881;DHT22;45751;51.380;10.326;2023-02-01T06:54:37;3.10;99.90
59881;DHT22;45751;51.380;10.326;2023-02-01T06:57:04;3.10;99.90
59881;DHT22;45751;51.380;10.326;2023-02-01T06:59:31;3.10;99.90
59881;DHT22;45751;51.380;10.326;2023-02-01T07:01:58;3.10;99.90
59881;DHT22;45751;51.380;10.326;2023-02-01T07:04:25;3.10;99.90
59881;DHT22;45751;51.380;10.326;2023-02-01T07:06:52;3.10;99.90
59881;DHT22;45751;51.380;10.326;2023-02-01T07:09:19;3.10;99.90
59881;DHT22;45751;51.380;10.326;2023-02-01T07:11:45;3.10;99.90
59881;DHT22;45751;51.380;10.326;2023-02-01T07:14:12;3.10;99.90
59881;DHT22;45751;51.380;10.326;2023-02-01T07:16:39;3.10;99.90
59881;DHT22;45751;51.380;10.326;2023-02-01T07:19:06;3.10;99.90
59881;DHT22;45751;51.380;10.326;2023-02-01T07:21:34;3.10;99.90
59881;DHT22;45751;51.380;10.326;2023-02-01T07:24:00;3.10;99.90
59881;DHT22;45751;51.380;10.326;2023-02-01T07:26:27;3.10;99.90
59881;DHT22;45751;51.380;10.326;2023-02-01T07:28:54;3.10;99.90
59881;DHT22;45751;51.380;10.326;2023-02-01T07:31:21;3.10;99.90
59881;DHT22;45751;51.380;10.326;2023-02-01T07:33:49;3.10;99.90
59881;DHT22;45751;51.380;10.326;2023-02-01T07:36:19;3.10;99.90
59881;DHT22;45751;51.380;10.326;2023-02-01T07:38:46;3.10;99.90
59881;DHT22;45751;51.380;10.326;2023-02-01T07:41:14;3.10;99.90
59881;DHT22;45751;51.380;10.326;2023-02-01T07:43:41;3.10;99.90
59881;DHT22;45751;51.380;10.326;2023-02-01T07:46:10;3.20;99.90
59881;DHT22;45751;51.380;10.326;2023-02-01T07:48:37;3.20;99.90
59881;DHT22;45751;51.380;10.326;2023-02-01T07:51:08;3.20;99.90
59881;DHT22;45751;51.380;10.326;2023-02-01T07:53:35;3.20;99.90
59881;DHT22;45751;51.380;10.326;2023-02-01T07:56:03;3.30;99.90
59881;DHT22;45751;51.380;10.326;2023-02-01T07:58:31;3.30;99.90
59881;DHT22;45751;51.380;10.326;2023-02-01T08:00:57;3.30;99.90
59881;DHT22;45751;51.380;10.326;2023-02-01T08:03:43;3.40;99.90
59881;DHT22;45751;51.380;10.326;2023-02-01T08:06:10;3.30;99.90
59881;DHT22;45751;51.380;10.326;2023-02-01T08:08:37;3.40;99.90
59881;DHT22;45751;51.380;10.326;2023-02-01T08:11:06;3.40;99.90
59881;DHT22;45751;51.380;10.326;2023-02-01T08:13:34;3.40;99.90
59881;DHT22;45751;51.380;10.326;2023-02-01T08:16:04;3.40;99.90
59881;DHT22;45751;51.380;10.326;2023-02-01T08:18:32;3.40;99.90
59881;DHT22;45751;51.380;10.326;2023-02-01T08:21:25;3.40;99.90
59881;DHT22;45751;51.380;10.326;2023-02-01T08:23:53;3.40;99.90
59881;DHT22;45751;51.380;10.326;2023-02-01T08:26:24;3.40;99.90
59881;DHT22;45751;51.380;10.326;2023-02-01T08:28:55;3.40;99.90
59881;DHT22;45751;51.380;10.326;2023-02-01T08:31:23;3.40;99.90
59881;DHT22;45751;51.380;10.326;2023-02-01T08:33:56;3.40;99.90
59881;DHT22;45751;51.380;10.326;2023-02-01T08:36:25;3.40;99.90
59881;DHT22;45751;51.380;10.326;2023-02-01T08:38:53;3.50;99.90
59881;DHT22;45751;51.380;10.326;2023-02-01T08:41:22;3.50;99.90
59881;DHT22;45751;51.380;10.326;2023-02-01T08:43:50;3.50;99.90
59881;DHT22;45751;51.380;10.326;2023-02-01T08:46:17;3.50;99.90
59881;DHT22;45751;51.380;10.326;2023-02-01T08:48:46;3.50;99.90
59881;DHT22;45751;51.380;10.326;2023-02-01T08:51:16;3.50;99.90
59881;DHT22;45751;51.380;10.326;2023-02-01T08:53:44;3.50;99.90
59881;DHT22;45751;51.380;10.326;2023-02-01T08:56:13;3.50;99.90
59881;DHT22;45751;51.380;10.326;2023-02-01T08:58:40;3.50;99.90
59881;DHT22;45751;51.380;10.326;2023-02-01T09:01:13;3.50;99.90
59881;DHT22;45751;51.380;10.326;2023-02-01T09:03:40;3.40;99.90
59881;DHT22;45751;51.380;10.326;2023-02-01T09:06:10;3.60;99.90
59881;DHT22;45751;51.380;10.326;2023-02-01T09:08:38;3.60;99.90
59881;DHT22;45751;51.380;10.326;2023-02-01T09:11:08;3.60;99.90
59881;DHT22;45751;51.380;10.326;2023-02-01T09:13:37;3.60;99.90
59881;DHT22;45751;51.380;10.326;2023-02-01T09:16:04;3.60;99.90
59881;DHT22;45751;51.380;10.326;2023-02-01T09:18:31;3.60;99.90
59881;DHT22;45751;51.380;10.326;2023-02-01T09:20:58;3.60;99.90
59881;DHT22;45751;51.380;10.326;2023-02-01T09:23:25;3.60;99.90
59881;DHT22;45751;51.380;10.326;2023-02-01T09:25:52;3.60;99.90
59881;DHT22;45751;51.380;10.326;2023-02-01T09:28:19;3.60;99.90
59881;DHT22;45751;51.380;10.326;2023-02-01T09:30:46;3.60;99.90
59881;DHT22;45751;51.380;10.326;2023-02-01T09:33:13;3.60;99.90
59881;DHT22;45751;51.380;10.326;2023-02-01T09:35:40;3.60;99.90
59881;DHT22;45751;51.380;10.326;2023-02-01T09:38:07;3.70;99.90
59881;DHT22;45751;51.380;10.326;2023-02-01T09:40:34;3.70;99.90
59881;DHT22;45751;51.380;10.326;2023-02-01T09:48:45;3.80;99.90
59881;DHT22;45751;51.380;10.326;2023-02-01T09:51:20;3.90;99.90
59881;DHT22;45751;51.380;10.326;2023-02-01T09:53:58;3.90;99.90
59881;DHT22;45751;51.380;10.326;2023-02-01T09:56:44;3.90;99.90
59881;DHT22;45751;51.380;10.326;2023-02-01T09:59:40;4.00;99.90
59881;DHT22;45751;51.380;10.326;2023-02-01T10:02:17;4.00;99.90
59881;DHT22;45751;51.380;10.326;2023-02-01T10:04:45;4.10;99.90
59881;DHT22;45751;51.380;10.326;2023-02-01T10:18:37;4.30;99.00
59881;DHT22;45751;51.380;10.326;2023-02-01T10:27:06;4.30;97.90
59881;DHT22;45751;51.380;10.326;2023-02-01T10:29:40;4.30;97.60
59881;DHT22;45751;51.380;10.326;2023-02-01T10:32:27;4.30;97.20
59881;DHT22;45751;51.380;10.326;2023-02-01T10:34:59;4.40;97.00
59881;DHT22;45751;51.380;10.326;2023-02-01T10:37:33;4.40;96.00
59881;DHT22;45751;51.380;10.326;2023-02-01T10:42:36;4.40;96.20
59881;DHT22;45751;51.380;10.326;2023-02-01T10:45:04;4.40;94.50
59881;DHT22;45751;51.380;10.326;2023-02-01T10:47:31;4.40;95.10
59881;DHT22;45751;51.380;10.326;2023-02-01T10:57:58;4.50;93.20
59881;DHT22;45751;51.380;10.326;2023-02-01T11:00:26;4.50;93.30
59881;DHT22;45751;51.380;10.326;2023-02-01T11:02:54;4.40;93.20
59881;DHT22;45751;51.380;10.326;2023-02-01T11:05:21;4.50;93.30
59881;DHT22;45751;51.380;10.326;2023-02-01T11:07:50;4.50;92.90
59881;DHT22;45751;51.380;10.326;2023-02-01T11:10:37;4.40;93.30
59881;DHT22;45751;51.380;10.326;2023-02-01T11:13:05;4.50;93.50
59881;DHT22;45751;51.380;10.326;2023-02-01T11:15:32;4.50;93.50
59881;DHT22;45751;51.380;10.326;2023-02-01T11:18:18;4.50;93.20
59881;DHT22;45751;51.380;10.326;2023-02-01T11:20:46;4.50;93.10
59881;DHT22;45751;51.380;10.326;2023-02-01T11:23:21;4.50;92.50
59881;DHT22;45751;51.380;10.326;2023-02-01T11:25:55;4.50;92.70
59881;DHT22;45751;51.380;10.326;2023-02-01T11:28:26;4.50;92.70
59881;DHT22;45751;51.380;10.326;2023-02-01T11:30:56;4.40;92.20
59881;DHT22;45751;51.380;10.326;2023-02-01T11:33:31;4.50;92.70
59881;DHT22;45751;51.380;10.326;2023-02-01T11:36:09;4.50;92.90
59881;DHT22;45751;51.380;10.326;2023-02-01T11:38:38;4.50;92.80
59881;DHT22;45751;51.380;10.326;2023-02-01T11:41:34;4.50;92.30
59881;DHT22;45751;51.380;10.326;2023-02-01T11:44:16;4.50;91.90
59881;DHT22;45751;51.380;10.326;2023-02-01T11:46:45;4.50;92.40
59881;DHT22;45751;51.380;10.326;2023-02-01T11:49:23;4.50;92.60
59881;DHT22;45751;51.380;10.326;2023-02-01T11:52:16;4.50;92.80
59881;DHT22;45751;51.380;10.326;2023-02-01T11:57:48;4.50;91.80
59881;DHT22;45751;51.380;10.326;2023-02-01T12:03:09;4.50;92.20
59881;DHT22;45751;51.380;10.326;2023-02-01T12:05:50;4.50;92.20
59881;DHT22;45751;51.380;10.326;2023-02-01T12:08:26;4.50;92.30
59881;DHT22;45751;51.380;10.326;2023-02-01T12:32:36;4.50;91.50
59881;DHT22;45751;51.380;10.326;2023-02-01T12:38:11;4.50;91.60
59881;DHT22;45751;51.380;10.326;2023-02-01T12:40:47;4.50;91.30
59881;DHT22;45751;51.380;10.326;2023-02-01T12:43:46;4.60;91.40
59881;DHT22;45751;51.380;10.326;2023-02-01T12:48:53;4.60;91.00
59881;DHT22;45751;51.380;10.326;2023-02-01T12:51:26;4.60;91.40
59881;DHT22;45751;51.380;10.326;2023-02-01T12:56:51;4.60;91.30
59881;DHT22;45751;51.380;10.326;2023-02-01T13:02:27;4.70;91.10
59881;DHT22;45751;51.380;10.326;2023-02-01T13:05:11;4.70;91.20
59881;DHT22;45751;51.380;10.326;2023-02-01T13:07:55;4.70;91.10
59881;DHT22;45751;51.380;10.326;2023-02-01T13:13:12;4.80;90.50
59881;DHT22;45751;51.380;10.326;2023-02-01T13:15:55;4.80;90.70
59881;DHT22;45751;51.380;10.326;2023-02-01T13:18:27;4.80;90.60
59881;DHT22;45751;51.380;10.326;2023-02-01T13:21:03;4.90;90.30
59881;DHT22;45751;51.380;10.326;2023-02-01T13:23:38;4.90;90.30
59881;DHT22;45751;51.380;10.326;2023-02-01T13:26:05;5.00;89.00
59881;DHT22;45751;51.380;10.326;2023-02-01T13:28:47;5.00;89.20
59881;DHT22;45751;51.380;10.326;2023-02-01T13:42:51;5.10;87.40
59881;DHT22;45751;51.380;10.326;2023-02-01T13:45:22;5.00;87.90
59881;DHT22;45751;51.380;10.326;2023-02-01T13:47:54;5.00;89.60
59881;DHT22;45751;51.380;10.326;2023-02-01T13:55:39;4.90;90.60
59881;DHT22;45751;51.380;10.326;2023-02-01T13:58:21;4.80;91.80
59881;DHT22;45751;51.380;10.326;2023-02-01T14:00:50;4.70;92.50
59881;DHT22;45751;51.380;10.326;2023-02-01T14:03:22;4.70;93.40
59881;DHT22;45751;51.380;10.326;2023-02-01T14:08:37;4.60;93.80
59881;DHT22;45751;51.380;10.326;2023-02-01T14:11:04;4.50;94.60
59881;DHT22;45751;51.380;10.326;2023-02-01T14:47:39;4.30;99.40
59881;DHT22;45751;51.380;10.326;2023-02-01T14:52:44;4.20;99.90
59881;DHT22;45751;51.380;10.326;2023-02-01T14:55:21;4.20;99.90
59881;DHT22;45751;51.380;10.326;2023-02-01T14:57:54;4.20;99.90
59881;DHT22;45751;51.380;10.326;2023-02-01T15:00:28;4.20;99.90
59881;DHT22;45751;51.380;10.326;2023-02-01T15:03:30;4.10;99.90
59881;DHT22;45751;51.380;10.326;2023-02-01T15:05:59;4.10;99.90
59881;DHT22;45751;51.380;10.326;2023-02-01T15:08:33;4.10;99.90
59881;DHT22;45751;51.380;10.326;2023-02-01T15:11:05;4.10;99.90
59881;DHT22;45751;51.380;10.326;2023-02-01T15:13:33;4.10;99.90
59881;DHT22;45751;51.380;10.326;2023-02-01T15:16:09;4.10;99.90
59881;DHT22;45751;51.380;10.326;2023-02-01T15:18:37;4.10;99.90
59881;DHT22;45751;51.380;10.326;2023-02-01T15:21:05;4.10;99.90
59881;DHT22;45751;51.380;10.326;2023-02-01T15:24:10;4.10;99.90
59881;DHT22;45751;51.380;10.326;2023-02-01T15:26:37;4.10;99.90
59881;DHT22;45751;51.380;10.326;2023-02-01T15:29:04;4.10;99.90
59881;DHT22;45751;51.380;10.326;2023-02-01T15:31:43;4.10;99.90
59881;DHT22;45751;51.380;10.326;2023-02-01T15:34:11;4.10;99.90
59881;DHT22;45751;51.380;10.326;2023-02-01T15:36:39;4.10;99.90
59881;DHT22;45751;51.380;10.326;2023-02-01T15:39:19;4.10;99.90
59881;DHT22;45751;51.380;10.326;2023-02-01T15:41:52;4.10;99.90
59881;DHT22;45751;51.380;10.326;2023-02-01T15:46:59;4.20;99.90
59881;DHT22;45751;51.380;10.326;2023-02-01T15:49:30;4.00;99.90
59881;DHT22;45751;51.380;10.326;2023-02-01T15:52:00;4.10;99.90
59881;DHT22;45751;51.380;10.326;2023-02-01T15:54:43;3.90;99.90
59881;DHT22;45751;51.380;10.326;2023-02-01T15:57:23;3.60;99.90
59881;DHT22;45751;51.380;10.326;2023-02-01T16:00:05;3.30;99.90
59881;DHT22;45751;51.380;10.326;2023-02-01T16:10:48;2.00;99.90
59881;DHT22;45751;51.380;10.326;2023-02-01T16:13:17;1.90;99.90
59881;DHT22;45751;51.380;10.326;2023-02-01T16:15:44;1.80;99.90
59881;DHT22;45751;51.380;10.326;2023-02-01T16:18:12;1.80;99.90
59881;DHT22;45751;51.380;10.326;2023-02-01T16:20:41;1.70;99.90
59881;DHT22;45751;51.380;10.326;2023-02-01T16:23:09;1.70;99.90
59881;DHT22;45751;51.380;10.326;2023-02-01T16:25:38;1.70;99.90
59881;DHT22;45751;51.380;10.326;2023-02-01T16:28:04;1.70;99.90
59881;DHT22;45751;51.380;10.326;2023-02-01T16:30:32;1.80;99.90
59881;DHT22;45751;51.380;10.326;2023-02-01T16:33:01;1.80;99.90
59881;DHT22;45751;51.380;10.326;2023-02-01T16:35:34;1.80;99.90
59881;DHT22;45751;51.380;10.326;2023-02-01T16:38:08;1.80;99.90
59881;DHT22;45751;51.380;10.326;2023-02-01T16:40:40;1.80;99.90
59881;DHT22;45751;51.380;10.326;2023-02-01T16:43:21;1.80;99.90
59881;DHT22;45751;51.380;10.326;2023-02-01T16:45:48;1.90;99.90
59881;DHT22;45751;51.380;10.326;2023-02-01T16:48:20;1.90;99.90
59881;DHT22;45751;51.380;10.326;2023-02-01T16:50:51;1.90;99.90
59881;DHT22;45751;51.380;10.326;2023-02-01T16:53:20;2.00;99.90
59881;DHT22;45751;51.380;10.326;2023-02-01T16:55:47;2.00;99.90
59881;DHT22;45751;51.380;10.326;2023-02-01T16:58:16;2.00;99.90
59881;DHT22;45751;51.380;10.326;2023-02-01T17:00:46;2.00;99.90
59881;DHT22;45751;51.380;10.326;2023-02-01T17:03:16;2.00;99.90
59881;DHT22;45751;51.380;10.326;2023-02-01T17:05:50;2.00;99.90
59881;DHT22;45751;51.380;10.326;2023-02-01T17:08:26;2.00;99.90
59881;DHT22;45751;51.380;10.326;2023-02-01T17:10:54;2.00;99.90
59881;DHT22;45751;51.380;10.326;2023-02-01T17:13:21;2.00;99.90
59881;DHT22;45751;51.380;10.326;2023-02-01T17:18:23;2.10;99.90
59881;DHT22;45751;51.380;10.326;2023-02-01T17:20:51;2.10;99.90
59881;DHT22;45751;51.380;10.326;2023-02-01T17:23:19;2.10;99.90
59881;DHT22;45751;51.380;10.326;2023-02-01T17:25:46;2.20;99.90
59881;DHT22;45751;51.380;10.326;2023-02-01T17:28:14;2.30;99.90
59881;DHT22;45751;51.380;10.326;2023-02-01T17:30:41;2.30;99.90
59881;DHT22;45751;51.380;10.326;2023-02-01T17:35:48;2.30;99.90
59881;DHT22;45751;51.380;10.326;2023-02-01T17:38:15;2.40;99.90
59881;DHT22;45751;51.380;10.326;2023-02-01T17:40:43;2.40;99.90
59881;DHT22;45751;51.380;10.326;2023-02-01T17:43:20;2.40;99.90
59881;DHT22;45751;51.380;10.326;2023-02-01T17:46:00;2.40;99.90
59881;DHT22;45751;51.380;10.326;2023-02-01T17:48:28;2.40;99.90
59881;DHT22;45751;51.380;10.326;2023-02-01T17:50:55;2.40;99.90
59881;DHT22;45751;51.380;10.326;2023-02-01T17:53:25;2.40;99.90
59881;DHT22;45751;51.380;10.326;2023-02-01T17:55:55;2.40;99.90
59881;DHT22;45751;51.380;10.326;2023-02-01T17:58:24;2.40;99.90
59881;DHT22;45751;51.380;10.326;2023-02-01T18:00:52;2.40;99.90
59881;DHT22;45751;51.380;10.326;2023-02-01T18:03:25;2.40;99.90
59881;DHT22;45751;51.380;10.326;2023-02-01T18:05:54;2.40;99.90
59881;DHT22;45751;51.380;10.326;2023-02-01T18:08:23;2.40;99.90
59881;DHT22;45751;51.380;10.326;2023-02-01T18:10:53;2.50;99.90
59881;DHT22;45751;51.380;10.326;2023-02-01T18:13:21;2.50;99.90
59881;DHT22;45751;51.380;10.326;2023-02-01T18:15:48;2.50;99.90
59881;DHT22;45751;51.380;10.326;2023-02-01T18:18:14;2.50;99.90
59881;DHT22;45751;51.380;10.326;2023-02-01T18:20:43;2.50;99.90
59881;DHT22;45751;51.380;10.326;2023-02-01T18:23:14;2.50;99.90
59881;DHT22;45751;51.380;10.326;2023-02-01T18:25:42;2.50;99.90
59881;DHT22;45751;51.380;10.326;2023-02-01T18:28:09;2.50;99.90
59881;DHT22;45751;51.380;10.326;2023-02-01T18:30:36;2.50;99.90
59881;DHT22;45751;51.380;10.326;2023-02-01T18:33:11;2.60;99.90
59881;DHT22;45751;51.380;10.326;2023-02-01T18:35:39;2.60;99.90
59881;DHT22;45751;51.380;10.326;2023-02-01T18:38:07;2.60;99.90
59881;DHT22;45751;51.380;10.326;2023-02-01T18:40:50;2.60;99.90
59881;DHT22;45751;51.380;10.326;2023-02-01T18:43:18;2.60;99.90
59881;DHT22;45751;51.380;10.326;2023-02-01T18:45:46;2.60;99.90
59881;DHT22;45751;51.380;10.326;2023-02-01T18:48:16;2.60;99.90
59881;DHT22;45751;51.380;10.326;2023-02-01T18:50:46;2.60;99.90
59881;DHT22;45751;51.380;10.326;2023-02-01T18:53:14;2.60;99.90
59881;DHT22;45751;51.380;10.326;2023-02-01T18:55:41;2.60;99.90
59881;DHT22;45751;51.380;10.326;2023-02-01T18:58:11;2.60;99.90
59881;DHT22;45751;51.380;10.326;2023-02-01T19:00:39;2.60;99.90
59881;DHT22;45751;51.380;10.326;2023-02-01T19:03:11;2.60;99.90
59881;DHT22;45751;51.380;10.326;2023-02-01T19:05:38;2.70;99.90